createdAt,value
2022-10-15T00:04:56.179Z,43.91204
2022-10-15T00:09:57.750Z,41.20748
2022-10-15T00:14:59.371Z,42.9504
2022-10-15T00:18:14.796Z,42.57875
2022-10-15T00:20:44.254Z,41.68257
2022-10-15T00:25:45.889Z,41.92179
2022-10-15T00:30:47.604Z,42.72607
2022-10-15T00:35:49.185Z,43.06783
2022-10-15T00:40:50.842Z,44.20542
2022-10-15T00:45:52.505Z,44.651
2022-10-15T00:50:54.225Z,45.14518
2022-10-15T00:55:55.944Z,44.05879
2022-10-15T01:00:57.678Z,45.32945
2022-10-15T01:05:59.292Z,45.26149
2022-10-15T01:11:00.927Z,47.26343
2022-10-15T01:16:02.577Z,47.08243
2022-10-15T01:21:04.278Z,47.06441
2022-10-15T01:26:05.871Z,48.14204
2022-10-15T01:31:07.613Z,48.33984
2022-10-15T01:36:09.231Z,48.65937
2022-10-15T01:41:10.851Z,47.54774
2022-10-15T01:46:12.488Z,48.9893
2022-10-15T01:51:14.095Z,49.57117
2022-10-15T01:56:15.648Z,48.78995
2022-10-15T02:01:17.259Z,48.33151
2022-10-15T02:06:18.882Z,49.16917
2022-10-15T02:11:20.493Z,50.60172
2022-10-15T02:16:22.072Z,52.53988
2022-10-15T02:21:23.694Z,51.41139
2022-10-15T02:26:25.307Z,52.17649
2022-10-15T02:31:27.069Z,52.88041
2022-10-15T02:36:28.680Z,52.78655
2022-10-15T02:41:30.386Z,51.07579
2022-10-15T02:46:32.035Z,54.52873
2022-10-15T02:51:33.804Z,51.81391
2022-10-15T02:56:35.404Z,52.03316
2022-10-15T03:01:36.979Z,53.38484
2022-10-15T03:06:38.602Z,52.9398
2022-10-15T03:11:40.212Z,56.39197
2022-10-15T03:16:41.776Z,55.53535
2022-10-15T03:21:43.410Z,56.79375
2022-10-15T03:26:45.022Z,54.64343
2022-10-15T03:31:46.605Z,55.39311
2022-10-15T03:36:48.188Z,54.05828
2022-10-15T03:41:49.805Z,54.47552
2022-10-15T03:46:51.435Z,54.42255
2022-10-15T03:51:53.059Z,55.17244
2022-10-15T03:56:54.702Z,56.0646
2022-10-15T04:01:56.452Z,54.03724
2022-10-15T04:06:58.065Z,55.4381
2022-10-15T04:12:00.814Z,56.75163
2022-10-15T04:17:02.439Z,55.51466
2022-10-15T04:22:03.998Z,59.06422
2022-10-15T04:27:05.733Z,58.32763
2022-10-15T04:32:07.356Z,58.40226
2022-10-15T04:37:08.963Z,57.73972
2022-10-15T04:42:10.545Z,60.93411
2022-10-15T04:47:12.105Z,59.96077
2022-10-15T04:52:13.737Z,57.73401
2022-10-15T04:57:15.320Z,58.15297
2022-10-15T05:02:17.026Z,56.05268
2022-10-15T05:07:18.722Z,57.30113
2022-10-15T05:12:20.346Z,56.79795
2022-10-15T05:17:22.316Z,57.9127
2022-10-15T05:22:24.319Z,58.70032
2022-10-15T05:27:26.106Z,59.07419
2022-10-15T05:32:27.721Z,61.33889
2022-10-15T05:37:29.330Z,60.63255
2022-10-15T05:42:30.910Z,60.37954
2022-10-15T05:47:52.309Z,59.20769
2022-10-15T05:52:53.935Z,61.48447
2022-10-15T05:57:55.494Z,63.91599
2022-10-15T06:02:57.173Z,64.89329
2022-10-15T06:07:58.772Z,64.56273
2022-10-15T06:13:00.381Z,61.20315
2022-10-15T06:18:02.013Z,62.48332
2022-10-15T06:23:03.559Z,68.48512
2022-10-15T06:28:05.191Z,63.18631
2022-10-15T06:33:06.857Z,64.1542
2022-10-15T06:38:08.487Z,63.51795
2022-10-15T06:43:10.233Z,65.82075
2022-10-15T06:48:11.796Z,65.76238
2022-10-15T06:53:13.377Z,64.30247
2022-10-15T06:58:17.446Z,61.60701
2022-10-15T07:03:20.948Z,65.908
2022-10-15T07:08:23.593Z,63.32235
2022-10-15T07:13:25.214Z,64.37049
2022-10-15T07:18:26.815Z,59.1284
2022-10-15T07:23:28.399Z,61.9377
2022-10-15T07:28:30.110Z,63.6153
2022-10-15T07:33:31.770Z,63.21278
2022-10-15T07:38:33.443Z,67.8654
2022-10-15T07:43:35.034Z,63.14751
2022-10-15T07:48:36.631Z,62.97025
2022-10-15T07:53:38.317Z,63.03372
2022-10-15T07:58:39.895Z,61.02948
2022-10-15T08:03:41.548Z,63.92896
2022-10-15T08:08:43.159Z,62.06903
2022-10-15T08:13:44.723Z,64.00184
2022-10-15T08:18:46.351Z,64.35573
2022-10-15T08:23:48.010Z,64.3499
2022-10-15T08:28:49.611Z,63.69882
2022-10-15T08:33:51.238Z,65.55246
2022-10-15T08:38:52.859Z,63.87151
2022-10-15T08:43:54.610Z,63.41767
2022-10-15T08:48:56.183Z,65.02704
2022-10-15T08:53:57.784Z,65.47622
2022-10-15T08:58:59.371Z,64.98821
2022-10-15T09:04:00.931Z,63.03178
2022-10-15T09:09:02.565Z,63.26369
2022-10-15T09:14:04.169Z,67.3136
2022-10-15T09:19:05.873Z,66.17162
2022-10-15T09:24:07.464Z,65.37843
2022-10-15T09:29:09.087Z,64.67093
2022-10-15T09:34:10.764Z,65.39792
2022-10-15T09:39:12.396Z,63.56685
2022-10-15T09:44:14.022Z,62.71446
2022-10-15T09:49:15.598Z,66.20116
2022-10-15T09:54:17.171Z,65.47143
2022-10-15T09:59:18.789Z,63.12452
2022-10-15T10:04:20.414Z,63.42854
2022-10-15T10:09:22.003Z,62.41554
2022-10-15T10:14:23.590Z,63.8647
2022-10-15T10:19:25.182Z,69.26851
2022-10-15T10:24:26.758Z,65.22236
2022-10-15T10:29:34.122Z,66.0255
2022-10-15T10:34:36.265Z,67.23752
2022-10-15T10:39:37.919Z,65.66809
2022-10-15T10:44:39.548Z,66.11889
2022-10-15T10:49:41.125Z,65.984
2022-10-15T10:59:44.319Z,65.9733
2022-10-15T11:04:45.931Z,65.09777
2022-10-15T11:09:50.054Z,66.63176
2022-10-15T11:14:55.306Z,66.84547
2022-10-15T11:20:21.775Z,66.52025
2022-10-15T11:25:32.125Z,64.63742
2022-10-15T11:30:33.698Z,69.52976
2022-10-15T11:35:52.363Z,68.678
2022-10-15T11:40:54.877Z,66.41943
2022-10-15T11:45:56.508Z,66.2361
2022-10-15T11:50:58.121Z,70.60427
2022-10-15T11:55:59.833Z,67.31407
2022-10-15T12:01:01.436Z,70.14814
2022-10-15T12:06:03.045Z,69.45394
2022-10-15T12:11:04.680Z,68.77303
2022-10-15T12:16:06.264Z,65.77055
2022-10-15T12:21:07.875Z,67.56051
2022-10-15T12:26:09.701Z,66.44657
2022-10-15T12:31:11.324Z,69.00655
2022-10-15T12:36:12.932Z,67.35799
2022-10-15T12:41:14.583Z,71.74925
2022-10-15T12:46:16.149Z,66.91636
2022-10-15T12:51:17.697Z,67.48065
2022-10-15T12:56:19.441Z,66.18834
2022-10-15T13:01:21.160Z,69.59599
2022-10-15T13:06:22.846Z,68.95246
2022-10-15T13:11:24.483Z,68.23402
2022-10-15T13:16:26.095Z,67.39705
2022-10-15T13:21:27.812Z,69.05594
2022-10-15T13:26:29.475Z,66.24876
2022-10-15T13:31:31.191Z,68.98583
2022-10-15T13:36:32.821Z,68.61676
2022-10-15T13:41:34.452Z,67.07786
2022-10-15T13:46:36.123Z,69.29393
2022-10-15T13:51:37.729Z,68.92082
2022-10-15T13:56:39.382Z,66.61432
2022-10-15T14:01:41.019Z,66.20903
2022-10-15T14:06:42.702Z,67.87339
2022-10-15T14:11:44.388Z,67.63543
2022-10-15T14:16:45.979Z,66.13306
2022-10-15T14:21:47.597Z,66.50081
2022-10-15T14:26:49.224Z,65.49486
2022-10-15T14:31:50.825Z,69.58347
2022-10-15T14:36:52.421Z,72.97873
2022-10-15T14:41:54.064Z,66.77043
2022-10-15T14:46:55.743Z,72.39998
2022-10-15T14:51:57.339Z,74.1666
2022-10-15T14:56:58.962Z,70.12511
2022-10-15T15:02:02.841Z,69.20884
2022-10-15T15:07:05.328Z,66.03431
2022-10-15T15:12:06.948Z,69.77135
2022-10-15T15:17:08.544Z,67.49087
2022-10-15T15:22:10.141Z,67.86795
2022-10-15T15:27:11.763Z,66.34445
2022-10-15T15:32:13.341Z,70.8926
2022-10-15T15:37:14.960Z,65.1156
2022-10-15T15:42:16.539Z,65.94316
2022-10-15T15:47:18.144Z,62.8344
2022-10-15T15:52:19.744Z,64.77618
2022-10-15T15:57:21.331Z,65.00721
2022-10-15T16:02:22.939Z,65.81605
2022-10-15T16:07:28.130Z,63.98867
2022-10-15T16:12:30.105Z,61.92149
2022-10-15T16:17:31.718Z,59.0542
2022-10-15T16:22:33.345Z,56.80191
2022-10-15T16:27:34.955Z,55.28179
2022-10-15T16:32:36.530Z,52.83827
2022-10-15T16:37:38.098Z,54.24463
2022-10-15T16:42:39.726Z,51.93927
2022-10-15T16:47:41.295Z,49.49421
2022-10-15T16:52:42.958Z,56.69792
2022-10-15T16:57:44.583Z,51.88571
2022-10-15T17:02:46.147Z,54.19532
2022-10-15T17:07:47.771Z,52.0314
2022-10-15T17:12:49.479Z,47.26674
2022-10-15T17:17:51.075Z,48.33733
2022-10-15T17:22:52.689Z,49.92879
2022-10-15T17:27:54.297Z,47.36208
2022-10-15T17:32:55.883Z,47.11413
2022-10-15T17:37:57.504Z,47.29134
2022-10-15T17:42:59.159Z,48.23127
2022-10-15T17:48:00.940Z,45.61
2022-10-15T17:53:02.552Z,44.75934
2022-10-15T17:58:04.126Z,45.03336
2022-10-15T18:03:05.718Z,45.5129
2022-10-15T18:08:07.307Z,45.46362
2022-10-15T18:13:09.110Z,45.86973
2022-10-15T18:18:10.695Z,46.72924
2022-10-15T18:23:12.261Z,44.60777
2022-10-15T18:28:14.047Z,42.81962
2022-10-15T18:33:15.629Z,41.99536
2022-10-15T18:38:17.255Z,44.33068
2022-10-15T18:43:19.586Z,45.52012
2022-10-15T18:48:21.279Z,41.76742
2022-10-15T18:53:23.023Z,42.55024
2022-10-15T18:58:24.611Z,42.79297
2022-10-15T19:03:26.192Z,41.01503
2022-10-15T19:08:27.800Z,39.37858
2022-10-15T19:13:29.301Z,38.68694
2022-10-15T19:18:30.875Z,38.82632
2022-10-15T19:23:32.434Z,37.61289
2022-10-15T19:28:34.127Z,38.44389
2022-10-15T19:33:35.813Z,37.04677
2022-10-15T19:38:37.469Z,36.29627
2022-10-15T19:43:39.059Z,34.93645
2022-10-15T19:48:40.664Z,34.76493
2022-10-15T19:53:42.312Z,33.46577
2022-10-15T19:58:43.901Z,34.24483
2022-10-15T20:03:45.478Z,34.80035
2022-10-15T20:08:47.095Z,33.04714
2022-10-15T20:13:48.711Z,32.31516
2022-10-15T20:18:50.331Z,32.74127
2022-10-15T20:23:51.931Z,32.05538
2022-10-15T20:28:53.655Z,31.91877
2022-10-15T20:33:55.317Z,33.23077
2022-10-15T20:38:56.898Z,32.4587
2022-10-15T20:43:58.524Z,30.87797
2022-10-15T20:49:03.265Z,33.82835
2022-10-15T20:54:07.749Z,33.11128
2022-10-15T20:59:09.384Z,37.36379
2022-10-15T21:04:11.062Z,35.97823
2022-10-15T21:09:12.650Z,36.66239
2022-10-15T21:14:14.215Z,36.18093
2022-10-15T21:19:15.904Z,37.31742
2022-10-15T21:24:17.458Z,35.65336
2022-10-15T21:29:19.077Z,36.35947
2022-10-15T21:34:20.656Z,36.3436
2022-10-15T21:39:22.258Z,35.14537
2022-10-15T21:44:23.865Z,36.17522
2022-10-15T21:49:25.469Z,36.13513
2022-10-15T21:54:27.068Z,37.2565
2022-10-15T21:59:28.716Z,35.20055
2022-10-15T22:04:30.338Z,34.85765
2022-10-15T22:09:31.947Z,34.18585
2022-10-15T22:14:33.682Z,33.50687
2022-10-15T22:19:35.277Z,32.36949
2022-10-15T22:24:36.889Z,34.17504
2022-10-15T22:29:38.559Z,33.78599
2022-10-15T22:34:40.401Z,33.12197
2022-10-15T22:39:42.000Z,33.2401
2022-10-15T22:44:43.639Z,32.77203
2022-10-15T22:49:45.268Z,33.25044
2022-10-15T22:54:46.981Z,31.88929
2022-10-15T22:59:48.548Z,33.07274
2022-10-15T23:04:50.180Z,34.25907
2022-10-15T23:09:51.807Z,35.14939
2022-10-15T23:14:53.406Z,34.36114
2022-10-15T23:19:55.016Z,34.83596
2022-10-15T23:24:56.631Z,35.77272
2022-10-15T23:30:13.994Z,36.86046
2022-10-15T23:35:25.630Z,38.14084
2022-10-15T23:40:27.295Z,39.09723
2022-10-15T23:45:28.926Z,38.45253
2022-10-15T23:50:30.523Z,38.57953
2022-10-15T23:55:32.131Z,40.4763
